首页
METAR-TAF:

METAR-TAF

机场 :

贝济耶, 法国

纬度: 43-19N, 经度: 003-21E, 海拔: 17米

当前天气观测

该预报发布于38分钟前的21:00 UTC
风速3节,风向多变
温度 20°C
湿度 83%
气压 1014 hPa
能见度10公里或以上
1500米以下无云,无积雨云

METAR: LFMU 192100Z AUTO VRB03KT CAVOK 20/17 Q1014

时间: 23:38 (21:38 UTC)

预报

该预报发布于7小时和38分钟前的14:00 UTC
预报有效从19日的 15点(UTC)到 20日的 15点(UTC)
风速12节,风向东南
能见度10公里或以上
1500米以下无云,无积雨云
成为
从 19日的 17点(UTC)到 19日的 19点(UTC)
风速5节,风向多变
多云层高于1000英尺
多云层高于3000英尺
短暂存在
从 19日的 23点(UTC)到 20日的 09点(UTC)
多云层高于1000英尺, 塔状积云.
多云层高于2500英尺
阵雨

TAF: LFMU 191400Z 1915/2015 14012KT CAVOK BECMG 1917/1919 VRB05KT BKN010 BKN030 TEMPO 1923/2009 SHRA BKN010TCU BKN025

超过4000个机场的气象观测和天气预报(METAR&TAF报告)。

可查询的气象台以黄色和红色小点在地图上表示。

将鼠标移到小点上方,可查看气象台名称。

然后点击查看天气观测和预报。

如需切换地图:点击带黑十字的绿色按钮放大地图;点击带横线的绿色按钮缩小地图;或者点击绿色箭头查看邻近地区的地图。


METAR-TAF: